Time;durP1;ratioP1;P1;durP2;ratioP2;P2;SDS_P1;SDS_P2;PMS_P1;PMS_P2;Temp;Humidity;BMP_temperature;BMP_pressure;BME280_temperature;BME280_humidity;BME280_pressure;Samples;Min_cycle;Max_cycle;Signal;HPM_P1;HPM_P2
2023/11/24 00:01:17;;;;;;;6.78;0.75;;;;;;;6.98;100.00;100448.00;6267179;28;20163;-72
2023/11/24 00:04:19;;;;;;;7.40;0.57;;;;;;;6.95;100.00;100455.13;6275320;28;20048;-71
2023/11/24 00:07:21;;;;;;;5.70;0.65;;;;;;;6.97;100.00;100453.28;6267206;28;20060;-71
2023/11/24 00:10:22;;;;;;;4.70;0.57;;;;;;;6.93;100.00;100468.25;6275253;28;20049;-73
2023/11/24 00:13:25;;;;;;;4.93;0.68;;;;;;;6.93;100.00;100449.97;6275289;28;20048;-72
2023/11/24 00:16:27;;;;;;;7.18;0.93;;;;;;;6.76;100.00;100439.38;6275323;28;20057;-71
2023/11/24 00:19:28;;;;;;;7.28;0.80;;;;;;;6.73;100.00;100444.75;6275482;28;20052;-71
2023/11/24 00:22:30;;;;;;;6.38;0.68;;;;;;;6.64;100.00;100455.59;6274806;28;20439;-72
2023/11/24 00:25:32;;;;;;;11.25;0.95;;;;;;;6.56;100.00;100441.06;6275375;28;20048;-72
2023/11/24 00:28:36;;;;;;;7.38;0.57;;;;;;;6.45;100.00;100434.59;6271234;28;20057;-72
2023/11/24 00:31:37;;;;;;;3.75;0.88;;;;;;;6.54;100.00;100442.91;6270308;28;20080;-70
2023/11/24 00:34:39;;;;;;;7.68;0.77;;;;;;;6.55;100.00;100441.16;6249846;28;20057;-71
2023/11/24 00:37:41;;;;;;;3.53;0.85;;;;;;;6.32;100.00;100434.28;6250437;28;20057;-71
2023/11/24 00:40:42;;;;;;;5.60;0.52;;;;;;;6.26;100.00;100440.56;6250186;28;20358;-72
2023/11/24 00:43:45;;;;;;;3.67;1.05;;;;;;;6.42;100.00;100453.00;6250114;28;20041;-71
2023/11/24 00:46:47;;;;;;;5.40;0.80;;;;;;;6.30;100.00;100449.97;6250447;28;20056;-71
2023/11/24 00:49:48;;;;;;;7.53;1.00;;;;;;;6.20;100.00;100459.09;6250533;28;20050;-72
2023/11/24 00:52:50;;;;;;;10.80;1.35;;;;;;;6.08;100.00;100449.97;6250108;28;20138;-72
2023/11/24 00:55:51;;;;;;;11.93;2.30;;;;;;;6.15;100.00;100450.59;6250117;28;20468;-71
2023/11/24 00:58:54;;;;;;;8.60;1.30;;;;;;;6.20;100.00;100445.19;6250187;28;20449;-71
2023/11/24 01:01:55;;;;;;;7.88;1.42;;;;;;;6.27;100.00;100449.28;6250079;28;20064;-72
2023/11/24 01:04:57;;;;;;;9.50;1.35;;;;;;;6.21;100.00;100442.50;6264608;28;20046;-72
2023/11/24 01:07:58;;;;;;;11.65;1.23;;;;;;;6.26;100.00;100455.38;6281700;28;20052;-72
2023/11/24 01:11:02;;;;;;;10.45;1.33;;;;;;;6.15;100.00;100457.56;6267450;28;20053;-71
2023/11/24 01:14:05;;;;;;;20.05;1.42;;;;;;;6.15;100.00;100454.97;6276124;28;20079;-72
2023/11/24 01:17:07;;;;;;;5.90;1.40;;;;;;;6.21;100.00;100452.94;6270333;28;20440;-71
2023/11/24 01:20:10;;;;;;;9.27;1.17;;;;;;;6.21;100.00;100450.34;6279459;28;20064;-72
2023/11/24 01:23:11;;;;;;;10.82;1.95;;;;;;;6.14;100.00;100448.91;6279030;28;20418;-72
2023/11/24 01:26:15;;;;;;;11.60;1.45;;;;;;;6.20;100.00;100456.47;6279293;28;20048;-71
2023/11/24 01:29:18;;;;;;;6.90;1.20;;;;;;;6.11;100.00;100441.19;6279133;28;20048;-72
2023/11/24 01:32:19;;;;;;;15.55;1.45;;;;;;;6.02;100.00;100438.94;6278957;28;20044;-71
2023/11/24 01:35:21;;;;;;;16.83;2.60;;;;;;;6.04;100.00;100457.97;6278655;28;20064;-72
2023/11/24 01:38:23;;;;;;;9.95;1.77;;;;;;;5.97;100.00;100457.38;6280735;28;20053;-71
2023/11/24 01:41:25;;;;;;;10.50;1.27;;;;;;;5.92;100.00;100456.72;6270420;28;20087;-71
2023/11/24 01:44:28;;;;;;;6.50;1.17;;;;;;;5.99;100.00;100437.28;6278829;28;20056;-71
2023/11/24 01:47:29;;;;;;;12.32;1.05;;;;;;;6.12;100.00;100436.81;6278679;28;20049;-72
2023/11/24 01:50:31;;;;;;;8.57;1.23;;;;;;;6.02;100.00;100438.94;6278442;28;20373;-72
2023/11/24 01:53:32;;;;;;;23.15;2.95;;;;;;;5.98;100.00;100433.00;6271014;28;20037;-72
2023/11/24 01:56:35;;;;;;;3.17;1.02;;;;;;;5.98;100.00;100412.13;6271560;28;20045;-72
2023/11/24 01:59:39;;;;;;;17.88;1.50;;;;;;;5.99;100.00;100421.66;6278569;28;20138;-72
2023/11/24 02:02:41;;;;;;;12.93;1.92;;;;;;;5.85;100.00;100419.56;6278325;28;20053;-71
2023/11/24 02:05:42;;;;;;;13.68;1.85;;;;;;;5.85;100.00;100414.34;6278405;28;20048;-72
2023/11/24 02:08:44;;;;;;;17.45;3.00;;;;;;;5.88;100.00;100407.31;6278022;28;20045;-72
2023/11/24 02:11:45;;;;;;;10.15;1.45;;;;;;;5.88;100.00;100416.00;6278253;28;20048;-72
2023/11/24 02:14:48;;;;;;;14.27;1.52;;;;;;;5.89;100.00;100411.63;6277671;28;20049;-71
2023/11/24 02:17:51;;;;;;;19.20;2.33;;;;;;;5.81;100.00;100415.38;6278046;28;20049;-72
2023/11/24 02:20:53;;;;;;;3.83;0.85;;;;;;;5.86;100.00;100399.56;6277849;28;20052;-72
2023/11/24 02:23:55;;;;;;;12.68;2.20;;;;;;;5.88;100.00;100409.94;6278864;28;20079;-72
2023/11/24 02:26:59;;;;;;;14.15;1.40;;;;;;;5.85;100.00;100408.28;6269974;28;20045;-72
2023/11/24 02:30:01;;;;;;;10.75;1.27;;;;;;;5.87;100.00;100401.25;6277280;28;20060;-72
2023/11/24 02:33:03;;;;;;;20.48;1.83;;;;;;;5.79;100.00;100400.69;6277491;28;20053;-72
2023/11/24 02:36:08;;;;;;;15.88;1.85;;;;;;;5.87;100.00;100400.41;6277300;28;20067;-73
2023/11/24 02:39:11;;;;;;;15.60;1.52;;;;;;;5.91;100.00;100400.22;6277619;28;20060;-72
2023/11/24 02:42:13;;;;;;;11.77;2.05;;;;;;;5.82;100.00;100398.84;6277441;28;20053;-72
2023/11/24 02:45:15;;;;;;;14.80;1.33;;;;;;;5.69;100.00;100392.41;6277320;28;20465;-72
2023/11/24 02:48:16;;;;;;;10.45;1.55;;;;;;;5.77;100.00;100397.31;6277278;28;20472;-72
2023/11/24 02:51:18;;;;;;;11.93;1.98;;;;;;;5.73;100.00;100401.81;6277364;28;20052;-71
2023/11/24 02:54:21;;;;;;;14.63;1.30;;;;;;;5.74;100.00;100393.06;6276834;28;20040;-72
2023/11/24 02:57:23;;;;;;;9.70;2.92;;;;;;;5.87;100.00;100406.47;6277066;28;20384;-72
2023/11/24 03:00:24;;;;;;;10.85;1.52;;;;;;;5.77;100.00;100400.78;6276782;28;20449;-73
2023/11/24 03:03:27;;;;;;;10.27;1.95;;;;;;;5.81;100.00;100389.31;6276540;28;20045;-73
2023/11/24 03:06:29;;;;;;;7.65;1.67;;;;;;;5.84;100.00;100396.16;6269296;28;20453;-73
2023/11/24 03:09:32;;;;;;;15.35;1.92;;;;;;;5.84;100.00;100396.16;6279824;28;20075;-72
2023/11/24 03:12:33;;;;;;;20.15;2.05;;;;;;;5.79;100.00;100382.44;6271012;28;20041;-72
2023/11/24 03:15:35;;;;;;;12.00;1.50;;;;;;;5.79;100.00;100396.34;6276675;28;20045;-72
2023/11/24 03:18:37;;;;;;;7.78;1.42;;;;;;;5.81;100.00;100388.44;6276664;28;20049;-72
2023/11/24 03:21:38;;;;;;;19.58;2.03;;;;;;;5.89;100.00;100383.78;6271654;28;20049;-72
2023/11/24 03:24:41;;;;;;;8.10;1.25;;;;;;;5.86;100.00;100381.31;6273392;28;20175;-72
2023/11/24 03:27:43;;;;;;;10.73;2.00;;;;;;;5.94;100.00;100381.00;6276454;28;20052;-72
2023/11/24 03:30:44;;;;;;;16.70;1.50;;;;;;;6.02;100.00;100366.75;6276105;28;20058;-72
2023/11/24 03:33:46;;;;;;;7.93;1.40;;;;;;;5.99;100.00;100356.44;6275892;28;20045;-72
2023/11/24 03:36:47;;;;;;;13.30;1.70;;;;;;;6.02;100.00;100358.09;6275892;28;20049;-72
2023/11/24 03:39:50;;;;;;;10.80;1.73;;;;;;;5.99;100.00;100366.88;6279017;28;20044;-72
2023/11/24 03:42:51;;;;;;;11.75;1.25;;;;;;;5.99;100.00;100374.69;6267879;28;20048;-72
2023/11/24 03:45:54;;;;;;;14.57;1.70;;;;;;;5.79;100.00;100398.09;6276054;28;20048;-72
2023/11/24 03:48:55;;;;;;;5.38;1.35;;;;;;;5.65;100.00;100390.81;6283902;28;20048;-71
2023/11/24 03:51:57;;;;;;;5.78;0.85;;;;;;;5.35;100.00;100369.38;6267453;28;20052;-73
2023/11/24 03:55:01;;;;;;;5.95;1.10;;;;;;;5.18;100.00;100377.84;6275575;28;20049;-72
2023/11/24 03:58:02;;;;;;;14.45;1.50;;;;;;;5.10;100.00;100387.69;6275693;28;20053;-72
2023/11/24 04:01:04;;;;;;;12.82;1.35;;;;;;;5.05;100.00;100356.59;6275452;28;20048;-73
2023/11/24 04:04:06;;;;;;;4.53;0.88;;;;;;;4.96;100.00;100349.13;6275263;28;20049;-72
2023/11/24 04:07:08;;;;;;;11.50;1.60;;;;;;;5.04;100.00;100362.72;6275390;28;20049;-73
2023/11/24 04:10:11;;;;;;;15.27;1.25;;;;;;;5.00;100.00;100355.91;6275413;28;20052;-73
2023/11/24 04:13:12;;;;;;;8.50;1.27;;;;;;;5.00;100.00;100358.53;6275349;28;20049;-73
2023/11/24 04:16:14;;;;;;;5.05;1.15;;;;;;;5.03;100.00;100374.03;6275122;28;20049;-73
2023/11/24 04:19:15;;;;;;;8.13;1.23;;;;;;;5.09;100.00;100354.72;6275558;28;20048;-74
2023/11/24 04:22:17;;;;;;;7.05;1.33;;;;;;;5.06;100.00;100360.91;6275059;28;20445;-74
2023/11/24 04:25:20;;;;;;;8.50;0.70;;;;;;;5.01;100.00;100352.41;6275427;28;20053;-73
2023/11/24 04:28:21;;;;;;;10.25;1.63;;;;;;;4.90;100.00;100333.72;6275272;28;20159;-74
2023/11/24 04:31:23;;;;;;;4.22;0.70;;;;;;;4.82;100.00;100339.22;6275062;28;20357;-74
2023/11/24 04:34:25;;;;;;;8.40;1.88;;;;;;;4.92;100.00;100334.50;6274879;28;20049;-73
2023/11/24 04:37:26;;;;;;;3.25;0.95;;;;;;;4.92;100.00;100329.31;6274837;28;20056;-74
2023/11/24 04:40:29;;;;;;;5.18;1.25;;;;;;;4.91;100.00;100327.63;6275151;28;20049;-74
2023/11/24 04:43:31;;;;;;;11.02;1.13;;;;;;;4.90;100.00;100332.84;6274920;28;20049;-73
2023/11/24 04:46:32;;;;;;;7.35;0.52;;;;;;;4.89;100.00;100321.59;6274980;28;20368;-74
2023/11/24 04:49:34;;;;;;;6.45;0.85;;;;;;;4.77;100.00;100315.09;6275024;28;20099;-73
2023/11/24 04:52:35;;;;;;;2.88;0.50;;;;;;;4.78;100.00;100313.34;6277512;28;20373;-74
2023/11/24 04:55:38;;;;;;;2.42;0.40;;;;;;;4.73;100.00;100317.88;6279657;28;20044;-74
2023/11/24 04:58:39;;;;;;;6.90;0.82;;;;;;;4.77;100.00;100311.66;6279798;28;20456;-72
2023/11/24 05:01:42;;;;;;;5.55;0.73;;;;;;;4.70;100.00;100308.41;6279743;28;20049;-72
2023/11/24 05:04:44;;;;;;;7.18;1.58;;;;;;;4.74;100.00;100301.34;6281535;28;20052;-71
2023/11/24 05:07:45;;;;;;;4.57;0.65;;;;;;;4.67;100.00;100292.06;6281109;28;20052;-73
2023/11/24 05:10:48;;;;;;;3.83;1.08;;;;;;;4.78;100.00;100295.97;6270885;28;20045;-73
2023/11/24 05:13:49;;;;;;;3.83;0.75;;;;;;;4.80;100.00;100278.53;6279063;28;20049;-73
2023/11/24 05:16:50;;;;;;;2.47;0.75;;;;;;;4.80;100.00;100288.09;6278621;28;20643;-72
2023/11/24 05:19:52;;;;;;;10.23;0.95;;;;;;;4.77;100.00;100278.66;6279415;28;20060;-73
2023/11/24 05:22:53;;;;;;;7.55;0.70;;;;;;;4.67;100.00;100276.44;6279002;28;20513;-72
2023/11/24 05:25:56;;;;;;;2.83;1.13;;;;;;;4.53;100.00;100275.19;6279093;28;20574;-73
2023/11/24 05:28:58;;;;;;;8.25;0.70;;;;;;;4.51;100.00;100261.41;6273302;28;20056;-74
2023/11/24 05:31:59;;;;;;;6.55;0.77;;;;;;;4.56;100.00;100263.81;6264352;28;20056;-72
2023/11/24 05:35:01;;;;;;;8.73;0.80;;;;;;;4.45;100.00;100261.63;6278529;28;20056;-73
2023/11/24 05:38:02;;;;;;;6.00;2.03;;;;;;;4.48;100.00;100256.28;6278502;28;20057;-74
2023/11/24 05:41:06;;;;;;;7.03;0.63;;;;;;;4.44;100.00;100265.09;6268627;28;20349;-72
2023/11/24 05:44:07;;;;;;;2.88;0.40;;;;;;;4.41;100.00;100269.59;6256395;28;20053;-72
2023/11/24 05:47:09;;;;;;;1.17;0.40;;;;;;;4.42;100.00;100264.31;6254123;28;20072;-72
2023/11/24 05:50:17;;;;;;;10.45;0.60;;;;;;;4.43;100.00;100276.41;6264350;28;20045;-72
2023/11/24 05:53:19;;;;;;;0.53;0.30;;;;;;;4.46;100.00;100271.13;6273171;28;20045;-74
2023/11/24 05:56:21;;;;;;;4.55;0.93;;;;;;;4.55;100.00;100267.34;6278343;28;20049;-74
2023/11/24 05:59:23;;;;;;;5.35;0.55;;;;;;;4.51;100.00;100263.16;6278361;28;20053;-71
2023/11/24 06:02:24;;;;;;;1.00;0.40;;;;;;;4.40;100.00;100268.72;6277557;28;20472;-72
2023/11/24 06:05:26;;;;;;;0.50;0.10;;;;;;;4.39;100.00;100271.38;6277745;28;20041;-71
2023/11/24 06:08:28;;;;;;;1.55;0.50;;;;;;;4.46;100.00;100273.72;6278029;28;20049;-71
2023/11/24 06:11:30;;;;;;;10.30;0.90;;;;;;;4.56;100.00;100271.63;6278241;28;20056;-71
2023/11/24 06:14:32;;;;;;;2.10;0.50;;;;;;;4.56;100.00;100280.28;6280413;28;20049;-71
2023/11/24 06:17:33;;;;;;;2.47;0.40;;;;;;;4.57;100.00;100275.94;6271392;28;20049;-72
2023/11/24 06:20:35;;;;;;;13.90;1.08;;;;;;;4.46;100.00;100265.06;6272794;28;20067;-71
2023/11/24 06:23:36;;;;;;;5.03;0.80;;;;;;;4.59;100.00;100263.72;6277610;28;20049;-73
2023/11/24 06:26:39;;;;;;;1.83;0.50;;;;;;;4.61;100.00;100264.50;6271374;28;20330;-73
2023/11/24 06:29:40;;;;;;;6.40;0.30;;;;;;;4.56;100.00;100248.22;6277775;28;20057;-73
2023/11/24 06:32:42;;;;;;;2.03;0.32;;;;;;;4.61;100.00;100248.03;6277506;28;20353;-74
2023/11/24 06:35:43;;;;;;;11.10;1.40;;;;;;;4.61;100.00;100251.50;6277427;28;20044;-73
2023/11/24 06:38:44;;;;;;;4.85;0.10;;;;;;;4.64;100.00;100255.75;6277779;28;20111;-73
2023/11/24 06:41:48;;;;;;;5.72;0.70;;;;;;;4.67;100.00;100260.81;6277390;28;20045;-74
2023/11/24 06:44:50;;;;;;;3.42;0.55;;;;;;;4.50;100.00;100259.69;6277139;28;20044;-73
2023/11/24 06:47:51;;;;;;;6.32;0.68;;;;;;;4.56;100.00;100262.06;6277488;28;20056;-74
2023/11/24 06:50:52;;;;;;;5.57;1.25;;;;;;;4.71;100.00;100267.63;6282546;28;20361;-72
2023/11/24 06:53:54;;;;;;;0.47;0.25;;;;;;;4.69;100.00;100272.03;6269339;28;20052;-72
2023/11/24 06:56:57;;;;;;;3.63;0.45;;;;;;;4.68;100.00;100270.31;6277022;28;20369;-71
2023/11/24 06:59:59;;;;;;;1.55;0.50;;;;;;;4.58;100.00;100285.41;6277443;28;20053;-72
2023/11/24 07:03:00;;;;;;;2.22;0.60;;;;;;;4.61;100.00;100281.88;6276761;28;20056;-72
2023/11/24 07:06:04;;;;;;;3.67;0.85;;;;;;;4.64;100.00;100280.03;6270591;28;20049;-72
2023/11/24 07:09:06;;;;;;;3.28;0.77;;;;;;;4.60;100.00;100280.19;6268388;28;20045;-70
2023/11/24 07:12:12;;;;;;;4.30;1.13;;;;;;;4.66;100.00;100285.16;6276945;28;20056;-70
2023/11/24 07:15:13;;;;;;;3.45;0.70;;;;;;;4.61;100.00;100281.88;6280438;28;20057;-71
2023/11/24 07:18:15;;;;;;;3.13;0.47;;;;;;;4.62;100.00;100270.56;6268394;28;20057;-71
2023/11/24 07:21:16;;;;;;;9.75;0.95;;;;;;;4.61;100.00;100259.31;6263693;28;20354;-73
2023/11/24 07:24:18;;;;;;;3.15;0.40;;;;;;;4.71;100.00;100259.81;6269098;28;20361;-70
2023/11/24 07:27:21;;;;;;;7.57;0.60;;;;;;;4.68;100.00;100259.91;6266014;28;20057;-71
2023/11/24 07:30:25;;;;;;;2.10;0.95;;;;;;;4.58;100.00;100260.25;6268956;28;20369;-71
2023/11/24 07:33:27;;;;;;;7.38;0.45;;;;;;;4.61;100.00;100250.66;6266760;28;20046;-71
2023/11/24 07:36:29;;;;;;;4.60;0.85;;;;;;;4.67;100.00;100245.22;6269743;28;20041;-71
2023/11/24 07:39:31;;;;;;;7.80;0.70;;;;;;;4.60;100.00;100255.00;6273329;28;20044;-70
2023/11/24 07:42:34;;;;;;;3.15;0.63;;;;;;;4.46;100.00;100252.06;6271743;28;20041;-73
2023/11/24 07:45:35;;;;;;;3.67;0.93;;;;;;;4.60;100.00;100257.59;6260478;28;20037;-71
2023/11/24 07:48:37;;;;;;;3.78;0.90;;;;;;;4.60;100.00;100254.16;6249043;28;20127;-72
2023/11/24 07:51:38;;;;;;;10.13;0.90;;;;;;;4.64;100.00;100250.53;6265436;28;20048;-71
2023/11/24 07:54:40;;;;;;;8.57;0.63;;;;;;;4.61;100.00;100238.47;6263953;28;20048;-71
2023/11/24 07:57:43;;;;;;;4.15;1.08;;;;;;;4.58;100.00;100230.78;6269053;28;20049;-72
2023/11/24 08:00:45;;;;;;;6.30;0.57;;;;;;;4.58;100.00;100242.03;6271384;28;20056;-73
2023/11/24 08:03:46;;;;;;;3.10;0.52;;;;;;;4.62;100.00;100234.13;6271630;28;20136;-71
2023/11/24 08:06:49;;;;;;;3.55;0.47;;;;;;;4.35;100.00;100225.56;6270187;28;20341;-71
2023/11/24 08:09:50;;;;;;;2.30;0.47;;;;;;;4.32;100.00;100222.19;6273799;28;20068;-71
2023/11/24 08:12:53;;;;;;;1.75;0.73;;;;;;;4.40;100.00;100221.88;6273807;28;20102;-72
2023/11/24 08:15:55;;;;;;;2.72;0.32;;;;;;;4.29;100.00;100214.47;6267102;28;20042;-71
2023/11/24 08:18:56;;;;;;;3.05;0.47;;;;;;;4.32;100.00;100209.19;6265022;28;20044;-71
2023/11/24 08:21:58;;;;;;;2.13;0.75;;;;;;;4.32;100.00;100201.38;6264236;28;20045;-72
2023/11/24 08:24:59;;;;;;;1.42;0.50;;;;;;;4.46;100.00;100207.84;6264150;28;20091;-72
2023/11/24 08:28:04;;;;;;;7.55;1.05;;;;;;;4.50;100.00;100212.88;6263502;28;20575;-73
2023/11/24 08:31:05;;;;;;;0.88;0.50;;;;;;;4.31;100.00;100212.69;6261563;28;20424;-72
2023/11/24 08:34:08;;;;;;;3.25;0.43;;;;;;;4.40;100.00;100226.25;6263196;28;20049;-72
2023/11/24 08:37:10;;;;;;;1.38;0.50;;;;;;;4.41;100.00;100218.41;6261122;28;20049;-74
2023/11/24 08:40:14;;;;;;;0.85;0.20;;;;;;;4.46;100.00;100218.25;6263787;28;20063;-72
2023/11/24 08:43:21;;;;;;;13.00;0.73;;;;;;;4.43;100.00;100205.34;6263694;28;20053;-72
2023/11/24 08:46:24;;;;;;;2.35;0.65;;;;;;;4.33;100.00;100199.63;6259216;28;20136;-72
2023/11/24 08:49:25;;;;;;;2.33;0.40;;;;;;;4.31;100.00;100191.00;6273723;28;20138;-73
2023/11/24 08:52:27;;;;;;;1.60;0.40;;;;;;;4.35;100.00;100184.78;6274020;28;20045;-72
2023/11/24 08:55:28;;;;;;;6.60;0.45;;;;;;;4.32;100.00;100175.38;6272882;28;20048;-71
2023/11/24 08:58:31;;;;;;;1.65;0.43;;;;;;;4.21;100.00;100169.69;6273225;28;20360;-73
2023/11/24 09:01:32;;;;;;;9.77;0.85;;;;;;;4.42;100.00;100173.28;6272514;28;20190;-72
2023/11/24 09:04:34;;;;;;;0.55;0.13;;;;;;;4.57;100.00;100177.88;6262846;28;20056;-75
2023/11/24 09:07:35;;;;;;;8.50;0.88;;;;;;;4.45;100.00;100167.97;6263144;28;20045;-71
2023/11/24 09:10:36;;;;;;;5.70;0.60;;;;;;;4.45;100.00;100164.50;6263182;28;20342;-72
2023/11/24 09:13:39;;;;;;;2.92;0.47;;;;;;;4.51;100.00;100159.06;6267929;28;20057;-74
2023/11/24 09:16:41;;;;;;;7.55;0.40;;;;;;;4.65;100.00;100154.19;6258494;28;20048;-73
2023/11/24 09:19:42;;;;;;;6.15;0.88;;;;;;;4.75;100.00;100142.50;6270798;28;20045;-73
2023/11/24 09:22:44;;;;;;;9.48;0.82;;;;;;;4.85;100.00;100153.41;6272980;28;20049;-73
2023/11/24 09:25:45;;;;;;;2.42;0.52;;;;;;;4.98;100.00;100166.78;6269659;28;20045;-71
2023/11/24 09:28:48;;;;;;;5.72;0.35;;;;;;;4.95;100.00;100164.28;6261923;28;20079;-71
2023/11/24 09:31:50;;;;;;;4.03;0.60;;;;;;;4.90;100.00;100167.06;6269590;28;20045;-71
2023/11/24 09:34:51;;;;;;;9.00;0.75;;;;;;;4.77;100.00;100166.75;6269960;28;20421;-71
2023/11/24 09:37:54;;;;;;;3.17;0.52;;;;;;;4.61;100.00;100163.00;6261517;28;20049;-72
2023/11/24 09:40:59;;;;;;;9.57;0.70;;;;;;;4.53;100.00;100162.44;6272554;28;20130;-71
2023/11/24 09:44:03;;;;;;;3.03;0.50;;;;;;;4.27;100.00;100164.28;6263482;28;20135;-71
2023/11/24 09:47:06;;;;;;;2.92;0.70;;;;;;;4.30;100.00;100164.16;6270542;28;20052;-71
2023/11/24 09:50:09;;;;;;;3.72;0.75;;;;;;;4.27;100.00;100179.03;6260899;28;20111;-72
2023/11/24 09:53:15;;;;;;;1.58;0.35;;;;;;;3.93;100.00;100161.19;6276089;28;20053;-71
2023/11/24 09:56:17;;;;;;;3.85;1.45;;;;;;;3.92;100.00;100136.97;6270873;28;20048;-72
2023/11/24 09:59:20;;;;;;;1.40;0.60;;;;;;;3.70;100.00;100136.88;6266959;28;20049;-73
2023/11/24 10:02:26;;;;;;;3.47;1.10;;;;;;;3.87;100.00;100119.84;6272410;28;20331;-71
2023/11/24 10:05:29;;;;;;;3.75;0.55;;;;;;;3.97;100.00;100114.25;6273458;28;20441;-71
2023/11/24 10:08:30;;;;;;;5.53;0.80;;;;;;;4.08;100.00;100100.84;6273354;28;20049;-72
2023/11/24 10:11:35;;;;;;;8.25;0.63;;;;;;;4.13;100.00;100095.47;6273552;28;20052;-72
2023/11/24 10:14:43;;;;;;;4.80;0.52;;;;;;;4.24;100.00;100101.13;6272848;28;20067;-72
2023/11/24 10:17:45;;;;;;;6.38;2.38;;;;;;;4.36;100.00;100079.88;6259169;28;20037;-71
2023/11/24 10:20:46;;;;;;;3.15;0.93;;;;;;;4.49;100.00;100065.44;6275892;28;20057;-74
2023/11/24 10:23:48;;;;;;;5.88;1.15;;;;;;;4.50;100.00;100090.59;6263560;28;20060;-71
2023/11/24 10:26:50;;;;;;;2.38;0.70;;;;;;;4.67;100.00;100060.44;6267670;28;20047;-73
2023/11/24 10:29:53;;;;;;;7.82;1.08;;;;;;;4.67;100.00;100053.47;6276495;28;20357;-74
2023/11/24 10:32:57;;;;;;;12.63;0.80;;;;;;;4.76;100.00;100036.63;6270493;28;20049;-74
2023/11/24 10:35:59;;;;;;;12.30;1.38;;;;;;;4.80;100.00;100046.00;6271911;28;20049;-71
2023/11/24 10:39:03;;;;;;;6.75;1.35;;;;;;;4.82;100.00;100036.41;6252881;28;20331;-73
2023/11/24 10:42:08;;;;;;;3.95;0.80;;;;;;;4.89;100.00;100030.00;6255437;28;20098;-72
2023/11/24 10:45:14;;;;;;;5.32;0.75;;;;;;;5.02;100.00;100031.19;6273227;28;20053;-72
2023/11/24 10:48:20;;;;;;;6.18;0.88;;;;;;;5.18;100.00;100018.38;6268325;28;20052;-74
2023/11/24 10:51:41;;;;;;;12.18;0.75;;;;;;;5.25;100.00;100017.19;6269356;28;20076;-74
2023/11/24 10:54:50;;;;;;;5.95;1.08;;;;;;;5.31;100.00;100021.28;6267482;28;20080;-73
2023/11/24 10:57:54;;;;;;;2.00;0.43;;;;;;;5.30;100.00;100006.56;6265556;28;20346;-73
2023/11/24 11:00:57;;;;;;;8.82;0.80;;;;;;;5.25;100.00;99988.53;6252454;28;20060;-73
2023/11/24 11:04:00;;;;;;;11.98;0.70;;;;;;;5.31;100.00;99984.81;6265493;28;20405;-73
2023/11/24 11:07:10;;;;;;;2.13;0.57;;;;;;;5.48;100.00;99973.66;6275901;28;20063;-74
2023/11/24 11:10:13;;;;;;;7.80;0.80;;;;;;;5.56;100.00;99967.19;6285182;28;20048;-72
2023/11/24 11:13:17;;;;;;;1.45;0.63;;;;;;;5.60;100.00;99967.91;6268039;28;20053;-72
2023/11/24 11:16:20;;;;;;;7.18;1.75;;;;;;;5.51;100.00;99960.50;6280410;28;20047;-72
2023/11/24 11:19:31;;;;;;;4.45;0.47;;;;;;;5.60;100.00;99960.94;6270579;28;20056;-72
2023/11/24 11:22:36;;;;;;;5.68;1.17;;;;;;;5.53;100.00;99959.50;6274466;28;20538;-73
2023/11/24 11:25:42;;;;;;;21.95;1.33;;;;;;;5.36;100.00;99956.84;6265681;28;20048;-74
2023/11/24 11:28:45;;;;;;;1.08;0.60;;;;;;;5.42;100.00;99951.34;6271063;28;20077;-71
2023/11/24 11:31:50;;;;;;;5.28;0.70;;;;;;;5.48;100.00;99955.41;6268405;28;20041;-72
2023/11/24 11:34:51;;;;;;;3.65;1.27;;;;;;;5.53;100.00;99959.50;6272338;28;20048;-74
2023/11/24 11:37:59;;;;;;;12.95;1.40;;;;;;;5.55;100.00;99965.50;6263613;28;20046;-72
2023/11/24 11:41:01;;;;;;;9.95;1.00;;;;;;;5.48;100.00;99963.22;6268188;28;20352;-73
2023/11/24 11:44:17;;;;;;;9.05;1.00;;;;;;;5.30;100.00;99957.94;6254804;28;20057;-72
2023/11/24 11:47:22;;;;;;;12.82;1.42;;;;;;;4.94;100.00;99952.56;6267904;28;20053;-73
2023/11/24 11:50:24;;;;;;;7.35;0.80;;;;;;;4.71;100.00;99939.69;6268453;28;20052;-75
2023/11/24 11:53:29;;;;;;;5.47;1.98;;;;;;;4.33;100.00;99939.53;6267286;28;20044;-72
2023/11/24 11:56:30;;;;;;;3.20;1.27;;;;;;;4.17;100.00;99943.63;6271773;28;20072;-74
2023/11/24 11:59:31;;;;;;;5.97;1.52;;;;;;;4.05;100.00;99961.44;6264584;28;20412;-75
2023/11/24 12:02:36;;;;;;;8.63;0.70;;;;;;;3.73;100.00;99957.47;6274482;28;20617;-71
2023/11/24 12:05:38;;;;;;;7.47;0.75;;;;;;;3.57;100.00;99940.75;6275367;28;20060;-72
2023/11/24 12:08:39;;;;;;;7.07;1.55;;;;;;;3.53;100.00;99936.56;6275169;28;20049;-71
2023/11/24 12:11:41;;;;;;;3.67;1.42;;;;;;;3.68;100.00;99930.81;6268394;28;20353;-71
2023/11/24 12:14:43;;;;;;;5.05;1.35;;;;;;;3.69;100.00;99942.91;6269576;28;20052;-72
2023/11/24 12:17:46;;;;;;;6.65;1.85;;;;;;;3.78;100.00;99931.31;6270889;28;20051;-74
2023/11/24 12:20:49;;;;;;;4.70;1.13;;;;;;;3.93;100.00;99920.31;6268482;28;20045;-73
2023/11/24 12:23:50;;;;;;;4.07;1.80;;;;;;;4.10;100.00;99905.81;6256386;28;20421;-74
2023/11/24 12:26:52;;;;;;;6.82;1.00;;;;;;;4.23;100.00;99899.22;6264366;28;20045;-72
2023/11/24 12:29:54;;;;;;;4.35;1.50;;;;;;;4.31;100.00;99897.97;6267584;28;20049;-77
2023/11/24 12:32:57;;;;;;;11.95;3.20;;;;;;;4.33;100.00;99887.50;6263669;28;20041;-73
2023/11/24 12:35:59;;;;;;;8.05;2.88;;;;;;;4.38;100.00;99875.16;6270447;28;20049;-73
2023/11/24 12:39:00;;;;;;;19.13;3.88;;;;;;;4.54;100.00;99883.13;6258630;28;20468;-72
2023/11/24 12:42:04;;;;;;;10.60;2.08;;;;;;;4.58;100.00;99862.13;6273064;28;20053;-74
2023/11/24 12:45:08;;;;;;;11.25;1.00;;;;;;;4.62;100.00;99867.22;6285723;28;20044;-82
2023/11/24 12:48:19;;;;;;;7.40;0.88;;;;;;;4.65;100.00;99857.53;6272047;28;20341;-73
2023/11/24 12:51:20;;;;;;;1.00;0.68;;;;;;;4.67;100.00;99845.28;6256335;28;20051;-74
2023/11/24 12:54:22;;;;;;;3.38;0.77;;;;;;;4.64;100.00;99840.22;6265682;28;20052;-74
2023/11/24 12:57:24;;;;;;;3.22;1.10;;;;;;;4.73;100.00;99838.97;6273773;28;20373;-74
2023/11/24 13:00:27;;;;;;;5.65;0.88;;;;;;;4.82;100.00;99835.97;6273843;28;20353;-74
2023/11/24 13:03:30;;;;;;;4.75;0.60;;;;;;;4.57;100.00;99847.44;6273555;28;20618;-73
2023/11/24 13:06:31;;;;;;;9.40;1.02;;;;;;;4.77;100.00;99835.34;6274416;28;20069;-74
2023/11/24 13:09:34;;;;;;;5.95;0.93;;;;;;;4.81;100.00;99813.44;6265786;28;20361;-73
2023/11/24 13:12:35;;;;;;;5.55;0.88;;;;;;;4.87;100.00;99817.53;6273253;28;20055;-74
2023/11/24 13:15:38;;;;;;;2.83;0.55;;;;;;;4.87;100.00;99814.94;6276525;28;20052;-74
2023/11/24 13:18:41;;;;;;;3.40;0.57;;;;;;;4.80;100.00;99829.97;6267910;28;20041;-72
2023/11/24 13:21:42;;;;;;;1.63;0.57;;;;;;;4.89;100.00;99826.97;6267640;28;20052;-72
2023/11/24 13:24:44;;;;;;;4.97;0.38;;;;;;;4.96;100.00;99819.75;6275641;28;20049;-71
2023/11/24 13:27:47;;;;;;;8.43;2.08;;;;;;;5.09;100.00;99826.94;6279302;28;20041;-72
2023/11/24 13:30:50;;;;;;;6.63;0.82;;;;;;;5.02;100.00;99833.31;6278749;28;20071;-71
2023/11/24 13:33:53;;;;;;;2.47;0.70;;;;;;;4.87;100.00;99836.63;6278866;28;20056;-73
2023/11/24 13:36:55;;;;;;;10.05;0.38;;;;;;;4.78;100.00;99816.19;6277547;28;20175;-71
2023/11/24 13:39:57;;;;;;;1.83;0.68;;;;;;;4.80;100.00;99824.78;6289066;22;20037;-76
2023/11/24 13:42:58;;;;;;;0.88;0.50;;;;;;;4.76;100.00;99803.22;6265451;28;20052;-72
2023/11/24 13:46:02;;;;;;;7.20;1.08;;;;;;;4.80;100.00;99806.56;6270272;28;20391;-75
2023/11/24 13:49:04;;;;;;;2.95;0.63;;;;;;;4.50;100.00;99804.41;6276918;28;20098;-75
2023/11/24 13:52:06;;;;;;;2.00;0.55;;;;;;;4.42;100.00;99808.25;6284928;28;20044;-75
2023/11/24 13:55:08;;;;;;;5.18;0.68;;;;;;;4.44;100.00;99807.25;6280794;28;20048;-75
2023/11/24 13:58:11;;;;;;;2.97;0.73;;;;;;;4.36;100.00;99798.97;6263209;28;20102;-75
2023/11/24 14:01:12;;;;;;;0.90;0.30;;;;;;;4.41;100.00;99807.41;6275648;28;20102;-75
2023/11/24 14:04:15;;;;;;;2.45;0.47;;;;;;;4.31;100.00;99804.34;6277644;28;20056;-75
2023/11/24 14:07:19;;;;;;;1.13;0.40;;;;;;;4.27;100.00;99794.13;6271022;28;20060;-74